createdAt,value
2023-04-06T00:01:20.596Z,5.63
2023-04-06T00:03:47.717Z,4.40
2023-04-06T00:06:17.079Z,5.05
2023-04-06T00:08:45.712Z,3.92
2023-04-06T00:11:12.761Z,3.85
2023-04-06T00:13:39.712Z,4.57
2023-04-06T00:16:07.243Z,4.55
2023-04-06T00:18:34.320Z,4.95
2023-04-06T00:21:01.435Z,4.32
2023-04-06T00:23:28.411Z,4.72
2023-04-06T00:25:55.402Z,5.00
2023-04-06T00:28:26.524Z,4.10
2023-04-06T00:30:56.433Z,3.33
2023-04-06T00:33:24.361Z,4.10
2023-04-06T00:35:52.025Z,4.95
2023-04-06T00:38:19.418Z,4.38
2023-04-06T00:40:46.764Z,3.95
2023-04-06T00:43:14.511Z,4.00
2023-04-06T00:45:43.198Z,3.90
2023-04-06T00:48:10.510Z,3.13
2023-04-06T00:50:37.502Z,4.60
2023-04-06T00:53:04.601Z,3.83
2023-04-06T00:55:31.565Z,3.97
2023-04-06T00:58:02.251Z,4.13
2023-04-06T01:00:36.415Z,4.25
2023-04-06T01:03:04.700Z,4.22
2023-04-06T01:05:41.761Z,3.17
2023-04-06T01:08:16.950Z,4.25
2023-04-06T01:10:44.107Z,3.83
2023-04-06T01:13:24.176Z,3.25
2023-04-06T01:15:57.941Z,4.28
2023-04-06T01:18:43.336Z,4.18
2023-04-06T01:21:17.792Z,4.20
2023-04-06T01:24:01.735Z,2.95
2023-04-06T01:26:37.137Z,4.10
2023-04-06T01:29:07.769Z,4.57
2023-04-06T01:31:34.899Z,3.85
2023-04-06T01:34:01.915Z,3.85
2023-04-06T01:36:29.043Z,4.30
2023-04-06T01:39:05.821Z,6.75
2023-04-06T01:41:36.752Z,4.35
2023-04-06T01:44:04.327Z,3.75
2023-04-06T01:46:32.595Z,4.05
2023-04-06T01:49:01.482Z,4.68
2023-04-06T01:51:36.644Z,3.90
2023-04-06T01:54:06.729Z,5.15
2023-04-06T01:56:56.830Z,3.78
2023-04-06T01:59:59.394Z,4.30
2023-04-06T02:02:40.632Z,4.95
2023-04-06T02:05:14.171Z,3.03
2023-04-06T02:07:41.744Z,4.03
2023-04-06T02:10:14.432Z,3.83
2023-04-06T02:12:41.565Z,8.23
2023-04-06T02:15:14.370Z,6.90
2023-04-06T02:17:42.386Z,4.78
2023-04-06T02:20:10.649Z,3.30
2023-04-06T02:22:37.714Z,4.38
2023-04-06T02:25:05.070Z,4.60
2023-04-06T02:27:32.010Z,3.88
2023-04-06T02:29:58.978Z,3.78
2023-04-06T02:32:26.152Z,3.45
2023-04-06T02:34:54.028Z,3.60
2023-04-06T02:37:23.147Z,4.55
2023-04-06T02:39:50.247Z,3.42
2023-04-06T02:42:17.460Z,3.47
2023-04-06T02:44:48.141Z,5.15
2023-04-06T02:47:15.531Z,3.72
2023-04-06T02:49:48.580Z,3.63
2023-04-06T02:52:18.999Z,4.30
2023-04-06T02:54:46.566Z,4.57
2023-04-06T02:57:13.824Z,4.20
2023-04-06T02:59:44.610Z,3.80
2023-04-06T03:02:23.335Z,4.00
2023-04-06T03:04:50.636Z,3.58
2023-04-06T03:07:26.597Z,4.45
2023-04-06T03:09:53.603Z,3.38
2023-04-06T03:12:20.718Z,3.75
2023-04-06T03:15:23.181Z,4.68
2023-04-06T03:18:01.348Z,5.22
2023-04-06T03:20:42.014Z,5.47
2023-04-06T03:23:10.373Z,7.05
2023-04-06T03:25:41.024Z,3.75
2023-04-06T03:28:10.809Z,3.15
2023-04-06T03:30:46.753Z,4.25
2023-04-06T03:33:16.740Z,4.65
2023-04-06T03:35:52.504Z,5.22
2023-04-06T03:38:19.543Z,25.85
2023-04-06T03:40:46.684Z,13.02
2023-04-06T03:43:13.658Z,7.80
2023-04-06T03:45:41.146Z,5.40
2023-04-06T03:48:08.513Z,5.70
2023-04-06T03:50:38.078Z,4.70
2023-04-06T03:53:06.062Z,4.97
2023-04-06T03:55:34.183Z,5.57
2023-04-06T03:58:01.206Z,6.88
2023-04-06T04:00:28.412Z,8.27
2023-04-06T04:02:56.155Z,11.57
2023-04-06T04:05:26.316Z,5.97
2023-04-06T04:07:54.019Z,6.90
2023-04-06T04:10:24.747Z,5.25
2023-04-06T04:12:52.686Z,6.45
2023-04-06T04:15:19.805Z,6.07
2023-04-06T04:17:50.483Z,5.95
2023-04-06T04:20:18.278Z,6.78
2023-04-06T04:22:45.475Z,6.75
2023-04-06T04:25:12.584Z,7.60
2023-04-06T04:27:45.254Z,6.15
2023-04-06T04:30:12.823Z,6.68
2023-04-06T04:32:40.068Z,4.40
2023-04-06T04:35:10.107Z,5.05
2023-04-06T04:37:41.643Z,4.57
2023-04-06T04:40:10.601Z,7.10
2023-04-06T04:43:03.592Z,4.75
2023-04-06T04:45:33.906Z,5.28
2023-04-06T04:48:09.981Z,7.03
2023-04-06T04:50:48.697Z,8.48
2023-04-06T04:53:17.190Z,5.05
2023-04-06T04:55:45.272Z,6.07
2023-04-06T04:58:17.731Z,3.65
2023-04-06T05:00:53.560Z,8.30
2023-04-06T05:03:26.386Z,9.48
2023-04-06T05:06:02.924Z,6.47
2023-04-06T05:08:33.486Z,6.50
2023-04-06T05:11:01.433Z,7.68
2023-04-06T05:13:32.558Z,5.38
2023-04-06T05:16:02.704Z,7.68
2023-04-06T05:18:33.202Z,9.80
2023-04-06T05:21:01.158Z,7.18
2023-04-06T05:23:39.305Z,8.65
2023-04-06T05:26:06.650Z,6.00
2023-04-06T05:28:33.968Z,5.70
2023-04-06T05:31:02.391Z,5.68
2023-04-06T05:33:36.335Z,7.15
2023-04-06T05:36:08.411Z,8.90
2023-04-06T05:38:39.951Z,5.93
2023-04-06T05:41:17.578Z,6.63
2023-04-06T05:43:51.793Z,8.18
2023-04-06T05:46:19.996Z,9.82
2023-04-06T05:48:47.463Z,7.38
2023-04-06T05:51:15.605Z,8.02
2023-04-06T05:53:47.519Z,15.20
2023-04-06T05:56:14.542Z,8.50
2023-04-06T05:58:42.326Z,7.38
2023-04-06T06:01:12.126Z,7.45
2023-04-06T06:03:43.070Z,12.70
2023-04-06T06:06:10.135Z,7.28
2023-04-06T06:09:06.714Z,4.80
2023-04-06T06:11:39.226Z,4.72
2023-04-06T06:14:06.945Z,5.97
2023-04-06T06:16:38.207Z,4.95
2023-04-06T06:19:06.908Z,5.00
2023-04-06T06:21:34.726Z,4.72
2023-04-06T06:24:03.235Z,5.05
2023-04-06T06:26:30.280Z,5.38
2023-04-06T06:28:57.637Z,4.00
2023-04-06T06:31:25.865Z,4.70
2023-04-06T06:33:55.022Z,5.35
2023-04-06T06:36:22.164Z,5.03
2023-04-06T06:38:49.972Z,4.30
2023-04-06T06:41:19.179Z,4.97
2023-04-06T06:43:46.487Z,4.40
2023-04-06T06:46:13.689Z,4.57
2023-04-06T06:48:41.860Z,4.53
2023-04-06T06:51:10.731Z,4.47
2023-04-06T06:53:40.692Z,3.85
2023-04-06T06:56:07.718Z,3.72
2023-04-06T06:58:34.748Z,4.82
2023-04-06T07:03:34.526Z,4.07
2023-04-06T07:06:01.597Z,4.32
2023-04-06T07:08:28.640Z,4.68
2023-04-06T07:10:57.518Z,2.65
2023-04-06T07:13:25.186Z,2.30
2023-04-06T07:15:55.746Z,4.13
2023-04-06T07:18:23.812Z,3.75
2023-04-06T07:20:51.000Z,2.75
2023-04-06T07:23:18.472Z,3.38
2023-04-06T07:25:46.181Z,3.20
2023-04-06T07:28:13.243Z,2.60
2023-04-06T07:30:41.413Z,1.98
2023-04-06T07:33:10.395Z,2.92
2023-04-06T07:35:38.422Z,2.38
2023-04-06T07:38:06.506Z,2.20
2023-04-06T07:40:34.875Z,3.05
2023-04-06T07:43:03.179Z,3.08
2023-04-06T07:45:30.813Z,2.97
2023-04-06T07:48:00.965Z,2.67
2023-04-06T07:50:29.037Z,3.17
2023-04-06T07:52:57.339Z,2.90
2023-04-06T07:55:24.536Z,3.03
2023-04-06T07:57:52.006Z,2.95
2023-04-06T08:00:19.494Z,1.80
2023-04-06T08:02:46.690Z,2.90
2023-04-06T08:05:13.941Z,2.80
2023-04-06T08:07:41.238Z,2.30
2023-04-06T08:10:08.543Z,2.47
2023-04-06T08:12:35.954Z,2.33
2023-04-06T08:15:04.283Z,1.58
2023-04-06T08:17:33.070Z,2.22
2023-04-06T08:20:00.242Z,1.90
2023-04-06T08:22:27.358Z,2.17
2023-04-06T08:24:54.559Z,1.95
2023-04-06T08:27:21.823Z,1.70
2023-04-06T08:29:52.243Z,2.00
2023-04-06T08:32:19.433Z,1.77
2023-04-06T08:34:48.000Z,1.73
2023-04-06T08:37:15.149Z,1.67
2023-04-06T08:39:42.340Z,1.40
2023-04-06T08:42:17.679Z,1.80
2023-04-06T08:44:47.170Z,2.03
2023-04-06T08:47:14.361Z,1.60
2023-04-06T08:49:43.176Z,1.48
2023-04-06T08:52:12.141Z,1.60
2023-04-06T08:54:39.750Z,2.00
2023-04-06T08:57:07.911Z,1.80
2023-04-06T08:59:35.360Z,2.17
2023-04-06T09:02:06.169Z,1.88
2023-04-06T09:04:39.815Z,1.75
2023-04-06T09:07:07.123Z,1.63
2023-04-06T09:09:34.284Z,1.88
2023-04-06T09:12:06.961Z,1.77
2023-04-06T09:14:38.922Z,1.67
2023-04-06T09:17:09.518Z,1.45
2023-04-06T09:19:48.744Z,1.45
2023-04-06T09:22:16.255Z,1.42
2023-04-06T09:24:49.484Z,1.75
2023-04-06T09:27:17.080Z,1.60
2023-04-06T09:29:45.186Z,1.98
2023-04-06T09:32:13.261Z,1.63
2023-04-06T09:34:40.695Z,1.90
2023-04-06T09:37:33.933Z,1.90
2023-04-06T09:40:08.601Z,1.70
2023-04-06T09:42:36.635Z,1.80
2023-04-06T09:45:04.796Z,1.95
2023-04-06T09:47:34.322Z,1.23
2023-04-06T09:50:03.208Z,1.80
2023-04-06T09:52:55.339Z,1.50
2023-04-06T09:55:33.542Z,1.50
2023-04-06T09:58:07.697Z,1.20
2023-04-06T10:00:45.843Z,1.55
2023-04-06T10:03:40.078Z,1.50
2023-04-06T10:06:12.525Z,1.70
2023-04-06T10:08:42.637Z,1.45
2023-04-06T10:11:12.852Z,1.50
2023-04-06T10:13:40.225Z,1.35
2023-04-06T10:16:08.997Z,1.30
2023-04-06T10:18:36.533Z,1.13
2023-04-06T10:21:30.125Z,1.45
2023-04-06T10:24:01.543Z,1.60
2023-04-06T10:26:28.668Z,1.27
2023-04-06T10:28:56.388Z,1.27
2023-04-06T10:31:28.624Z,1.30
2023-04-06T10:34:03.663Z,1.10
2023-04-06T10:36:35.201Z,1.80
2023-04-06T10:39:04.805Z,1.75
2023-04-06T10:41:43.511Z,1.17
2023-04-06T10:44:21.655Z,1.73
2023-04-06T10:47:01.892Z,1.77
2023-04-06T10:49:29.030Z,1.67
2023-04-06T10:51:57.677Z,2.42
2023-04-06T10:54:27.175Z,1.38
2023-04-06T10:56:54.476Z,1.50
2023-04-06T10:59:23.099Z,1.50
2023-04-06T11:01:50.729Z,1.40
2023-04-06T11:04:19.705Z,1.45
2023-04-06T11:06:51.500Z,1.20
2023-04-06T11:09:27.111Z,1.30
2023-04-06T11:11:55.617Z,1.60
2023-04-06T11:14:22.988Z,1.58
2023-04-06T11:16:53.393Z,2.30
2023-04-06T11:19:20.754Z,1.45
2023-04-06T11:21:49.866Z,1.33
2023-04-06T11:24:21.341Z,1.70
2023-04-06T11:26:58.405Z,1.27
2023-04-06T11:29:28.209Z,1.73
2023-04-06T11:32:01.945Z,2.75
2023-04-06T11:34:38.202Z,1.75
2023-04-06T11:37:11.647Z,1.70
2023-04-06T11:39:41.577Z,2.08
2023-04-06T11:42:09.470Z,1.88
2023-04-06T11:44:50.396Z,1.55
2023-04-06T11:47:17.549Z,3.30
2023-04-06T11:49:48.879Z,2.20
2023-04-06T11:52:20.948Z,2.00
2023-04-06T11:54:49.794Z,1.70
2023-04-06T11:57:17.961Z,1.70
2023-04-06T11:59:46.217Z,1.73
2023-04-06T12:02:13.617Z,1.90
2023-04-06T12:04:40.719Z,1.85
2023-04-06T12:07:07.977Z,2.05
2023-04-06T12:09:35.806Z,1.92
2023-04-06T12:12:03.209Z,2.35
2023-04-06T12:14:31.961Z,2.50
2023-04-06T12:16:59.636Z,1.77
2023-04-06T12:19:27.190Z,1.92
2023-04-06T12:21:55.656Z,2.38
2023-04-06T12:24:22.924Z,2.85
2023-04-06T12:26:54.131Z,3.17
2023-04-06T12:29:26.870Z,3.67
2023-04-06T12:31:54.440Z,2.55
2023-04-06T12:34:21.759Z,2.53
2023-04-06T12:36:48.806Z,3.17
2023-04-06T12:39:17.441Z,3.45
2023-04-06T12:41:45.141Z,3.13
2023-04-06T12:44:12.379Z,3.22
2023-04-06T12:46:39.651Z,3.30
2023-04-06T12:49:07.477Z,3.40
2023-04-06T12:51:35.063Z,3.38
2023-04-06T12:54:02.126Z,4.10
2023-04-06T12:56:29.181Z,3.75
2023-04-06T12:58:56.523Z,3.33
2023-04-06T13:01:23.742Z,3.95
2023-04-06T13:03:50.943Z,3.97
2023-04-06T13:06:17.962Z,3.90
2023-04-06T13:08:45.216Z,3.75
2023-04-06T13:11:12.878Z,4.00
2023-04-06T13:13:40.117Z,3.65
2023-04-06T13:16:09.780Z,4.00
2023-04-06T13:18:39.845Z,4.68
2023-04-06T13:21:08.199Z,4.60
2023-04-06T13:23:41.009Z,4.45
2023-04-06T13:26:08.739Z,5.47
2023-04-06T13:28:39.005Z,4.00
2023-04-06T13:31:06.969Z,3.70
2023-04-06T13:33:34.408Z,4.40
2023-04-06T13:36:01.795Z,4.80
2023-04-06T13:38:28.952Z,4.45
2023-04-06T13:40:56.404Z,5.15
2023-04-06T13:43:23.581Z,5.07
2023-04-06T13:45:59.295Z,4.70
2023-04-06T13:48:27.487Z,5.30
2023-04-06T13:50:54.974Z,5.25
2023-04-06T13:53:22.151Z,4.47
2023-04-06T13:55:56.649Z,5.20
2023-04-06T13:58:24.296Z,4.80
2023-04-06T14:00:52.117Z,4.38
2023-04-06T14:03:19.821Z,5.20
2023-04-06T14:05:47.411Z,4.80
2023-04-06T14:08:14.587Z,4.80
2023-04-06T14:10:43.558Z,4.85
2023-04-06T14:13:10.805Z,5.13
2023-04-06T14:15:38.574Z,4.72
2023-04-06T14:18:05.804Z,4.75
2023-04-06T14:20:33.830Z,5.22
2023-04-06T14:23:02.644Z,5.35
2023-04-06T14:25:32.291Z,5.50
2023-04-06T14:27:59.571Z,5.13
2023-04-06T14:30:26.721Z,4.85
2023-04-06T14:32:53.851Z,4.55
2023-04-06T14:35:21.014Z,5.45
2023-04-06T14:37:48.420Z,4.93
2023-04-06T14:40:15.574Z,5.00
2023-04-06T14:42:42.560Z,4.93
2023-04-06T14:45:09.956Z,4.63
2023-04-06T14:47:37.006Z,5.88
2023-04-06T14:50:04.420Z,5.22
2023-04-06T14:52:32.814Z,5.10
2023-04-06T14:55:00.076Z,6.28
2023-04-06T14:57:27.294Z,6.43
2023-04-06T14:59:55.634Z,6.32
2023-04-06T15:02:22.991Z,6.18
2023-04-06T15:04:50.186Z,6.32
2023-04-06T15:07:17.830Z,6.20
2023-04-06T15:09:44.973Z,6.75
2023-04-06T15:12:12.036Z,7.05
2023-04-06T15:14:39.129Z,7.10
2023-04-06T15:17:07.150Z,6.80
2023-04-06T15:19:34.219Z,7.38
2023-04-06T15:22:01.408Z,6.60
2023-04-06T15:24:28.427Z,6.70
2023-04-06T15:26:58.777Z,6.72
2023-04-06T15:29:26.826Z,6.70
2023-04-06T15:31:54.063Z,8.93
2023-04-06T15:34:21.166Z,7.15
2023-04-06T15:36:48.535Z,7.22
2023-04-06T15:39:20.768Z,8.30
2023-04-06T15:41:48.028Z,7.50
2023-04-06T15:44:15.145Z,7.05
2023-04-06T15:46:42.650Z,7.90
2023-04-06T15:49:09.752Z,7.47
2023-04-06T15:51:37.452Z,7.85
2023-04-06T15:54:09.030Z,8.45
2023-04-06T15:56:36.719Z,8.77
2023-04-06T15:59:04.931Z,7.88
2023-04-06T16:01:32.218Z,9.13
2023-04-06T16:04:01.881Z,12.85
2023-04-06T16:06:29.069Z,7.68
2023-04-06T16:08:56.253Z,9.45
2023-04-06T16:11:23.262Z,9.98
2023-04-06T16:13:55.196Z,10.05
2023-04-06T16:16:23.147Z,8.55
2023-04-06T16:18:50.451Z,8.82
2023-04-06T16:21:18.284Z,9.55
2023-04-06T16:23:47.248Z,9.98
2023-04-06T16:26:16.736Z,10.18
2023-04-06T16:28:44.476Z,8.75
2023-04-06T16:31:22.375Z,8.40
2023-04-06T16:33:50.941Z,10.85
2023-04-06T16:36:29.442Z,10.60
2023-04-06T16:38:57.772Z,10.27
2023-04-06T16:41:27.687Z,10.75
2023-04-06T16:43:57.543Z,10.70
2023-04-06T16:46:34.867Z,10.82
2023-04-06T16:49:04.319Z,11.20
2023-04-06T16:51:34.599Z,11.23
2023-04-06T16:54:02.534Z,9.27
2023-04-06T16:56:30.055Z,10.05
2023-04-06T16:58:57.069Z,10.20
2023-04-06T17:01:26.935Z,10.32
2023-04-06T17:03:55.228Z,11.50
2023-04-06T17:06:23.072Z,10.00
2023-04-06T17:08:50.919Z,10.75
2023-04-06T17:11:21.778Z,9.98
2023-04-06T17:16:21.172Z,10.38
2023-04-06T17:18:48.383Z,9.93
2023-04-06T17:21:17.212Z,10.95
2023-04-06T17:23:48.662Z,9.57
2023-04-06T17:26:16.053Z,9.27
2023-04-06T17:28:43.169Z,10.55
2023-04-06T17:31:12.436Z,10.02
2023-04-06T17:33:40.967Z,9.70
2023-04-06T17:36:11.110Z,12.30
2023-04-06T17:38:43.462Z,9.95
2023-04-06T17:41:12.157Z,10.18
2023-04-06T17:43:39.316Z,10.05
2023-04-06T17:46:06.604Z,10.25
2023-04-06T17:48:34.303Z,11.00
2023-04-06T17:51:01.565Z,11.38
2023-04-06T17:53:32.634Z,10.63
2023-04-06T17:56:04.108Z,10.57
2023-04-06T17:58:31.323Z,9.25
2023-04-06T18:00:58.744Z,10.52
2023-04-06T18:03:26.274Z,10.98
2023-04-06T18:05:53.339Z,10.40
2023-04-06T18:08:21.859Z,10.85
2023-04-06T18:10:49.374Z,10.00
2023-04-06T18:13:16.471Z,10.77
2023-04-06T18:15:43.558Z,10.32
2023-04-06T18:18:10.867Z,9.98
2023-04-06T18:20:41.813Z,10.43
2023-04-06T18:23:08.923Z,9.82
2023-04-06T18:25:42.090Z,10.85
2023-04-06T18:28:09.855Z,11.10
2023-04-06T18:30:36.952Z,12.10
2023-04-06T18:33:04.421Z,11.30
2023-04-06T18:35:31.680Z,10.15
2023-04-06T18:37:58.765Z,11.23
2023-04-06T18:40:39.259Z,11.32
2023-04-06T18:43:08.808Z,10.45
2023-04-06T18:45:38.521Z,10.30
2023-04-06T18:48:06.266Z,10.07
2023-04-06T18:50:33.426Z,9.68
2023-04-06T18:53:00.908Z,9.48
2023-04-06T18:55:28.394Z,9.20
2023-04-06T18:57:55.671Z,9.70
2023-04-06T19:00:22.913Z,9.18
2023-04-06T19:02:50.183Z,10.23
2023-04-06T19:05:17.532Z,11.20
2023-04-06T19:07:49.582Z,10.50
2023-04-06T19:10:16.780Z,11.15
2023-04-06T19:12:43.963Z,11.40
2023-04-06T19:15:11.685Z,12.65
2023-04-06T19:17:39.064Z,11.55
2023-04-06T19:20:06.901Z,9.98
2023-04-06T19:22:37.591Z,11.27
2023-04-06T19:25:05.754Z,10.55
2023-04-06T19:27:32.813Z,10.80
2023-04-06T19:30:00.554Z,11.48
2023-04-06T19:32:27.769Z,10.82
2023-04-06T19:34:55.048Z,11.52
2023-04-06T19:37:22.479Z,11.23
2023-04-06T19:39:49.850Z,11.07
2023-04-06T19:42:17.202Z,14.82
2023-04-06T19:44:44.417Z,12.48
2023-04-06T19:47:14.961Z,10.32
2023-04-06T19:49:42.022Z,11.20
2023-04-06T19:52:10.335Z,14.48
2023-04-06T19:54:40.556Z,12.48
2023-04-06T19:57:08.402Z,10.35
2023-04-06T19:59:35.611Z,11.38
2023-04-06T20:02:03.220Z,10.27
2023-04-06T20:06:57.860Z,10.52
2023-04-06T20:09:25.397Z,10.00
2023-04-06T20:11:54.235Z,9.80
2023-04-06T20:14:22.614Z,9.73
2023-04-06T20:16:58.255Z,10.48
2023-04-06T20:19:25.515Z,9.82
2023-04-06T20:21:52.585Z,10.63
2023-04-06T20:24:19.982Z,12.70
2023-04-06T20:26:47.155Z,10.07
2023-04-06T20:29:14.286Z,9.43
2023-04-06T20:31:41.368Z,11.60
2023-04-06T20:34:08.527Z,10.57
2023-04-06T20:36:35.861Z,10.35
2023-04-06T20:39:07.270Z,10.25
2023-04-06T20:41:34.946Z,11.35
2023-04-06T20:44:02.035Z,12.38
2023-04-06T20:46:29.188Z,12.30
2023-04-06T20:48:56.655Z,12.63
2023-04-06T20:51:23.943Z,10.88
2023-04-06T20:53:51.005Z,10.85
2023-04-06T20:56:18.142Z,11.25
2023-04-06T20:58:45.510Z,11.30
2023-04-06T21:01:37.655Z,10.32
2023-04-06T21:04:04.941Z,10.73
2023-04-06T21:06:32.530Z,10.25
2023-04-06T21:09:00.788Z,10.95
2023-04-06T21:11:27.824Z,10.45
2023-04-06T21:13:55.019Z,10.00
2023-04-06T21:16:22.310Z,10.77
2023-04-06T21:18:49.458Z,9.30
2023-04-06T21:21:16.752Z,11.30
2023-04-06T21:23:43.942Z,10.15
2023-04-06T21:26:13.880Z,10.32
2023-04-06T21:28:40.861Z,10.25
2023-04-06T21:31:10.880Z,10.98
2023-04-06T21:33:38.041Z,11.05
2023-04-06T21:36:07.059Z,11.88
2023-04-06T21:38:37.864Z,10.07
2023-04-06T21:41:04.959Z,9.95
2023-04-06T21:43:36.934Z,9.63
2023-04-06T21:46:04.049Z,10.50
2023-04-06T21:48:31.249Z,10.43
2023-04-06T21:50:58.278Z,10.23
2023-04-06T21:53:25.448Z,10.20
2023-04-06T21:55:52.649Z,10.82
2023-04-06T21:58:19.861Z,10.70
2023-04-06T22:00:47.009Z,10.50
2023-04-06T22:03:17.818Z,11.55
2023-04-06T22:05:45.155Z,11.68
2023-04-06T22:08:17.831Z,10.20
2023-04-06T22:10:52.817Z,12.35
2023-04-06T22:13:19.918Z,12.93
2023-04-06T22:15:47.171Z,12.40
2023-04-06T22:18:14.301Z,11.13
2023-04-06T22:20:41.369Z,11.82
2023-04-06T22:23:08.503Z,10.23
2023-04-06T22:25:35.772Z,10.35
2023-04-06T22:28:02.829Z,9.55
2023-04-06T22:30:30.130Z,10.98
2023-04-06T22:32:57.403Z,11.23
2023-04-06T22:35:24.623Z,10.07
2023-04-06T22:37:51.769Z,11.15
2023-04-06T22:40:18.754Z,11.88
2023-04-06T22:42:46.285Z,10.50
2023-04-06T22:45:13.442Z,9.57
2023-04-06T22:47:41.834Z,10.27
2023-04-06T22:50:09.874Z,11.20
2023-04-06T22:52:37.182Z,10.23
2023-04-06T22:55:04.436Z,10.63
2023-04-06T22:57:31.672Z,10.57
2023-04-06T22:59:59.039Z,12.23
2023-04-06T23:02:26.376Z,10.60
2023-04-06T23:04:53.488Z,11.50
2023-04-06T23:07:20.776Z,11.82
2023-04-06T23:09:51.180Z,11.23
2023-04-06T23:12:18.312Z,10.73
2023-04-06T23:14:45.257Z,11.55
2023-04-06T23:17:12.348Z,10.65
2023-04-06T23:19:39.342Z,11.60
2023-04-06T23:22:06.888Z,11.77
2023-04-06T23:24:33.987Z,10.57
2023-04-06T23:27:01.298Z,11.95
2023-04-06T23:29:28.284Z,11.88
2023-04-06T23:31:58.743Z,12.38
2023-04-06T23:34:25.904Z,11.85
2023-04-06T23:36:53.145Z,12.38
2023-04-06T23:39:20.207Z,10.90
2023-04-06T23:41:47.264Z,10.80
2023-04-06T23:44:14.325Z,11.55
2023-04-06T23:46:41.514Z,11.18
2023-04-06T23:49:08.512Z,11.05
2023-04-06T23:51:35.803Z,12.43
2023-04-06T23:54:02.924Z,10.63
2023-04-06T23:56:32.069Z,11.95
2023-04-06T23:58:59.143Z,12.57
